sensor_id;sensor_type;location;lat;lon;timestamp;P1;durP1;ratioP1;P2;durP2;ratioP2
28796;SDS011;24974;54.444;18.560;2023-02-22T00:02:26;8.48;;;4.95;;
28796;SDS011;24974;54.444;18.560;2023-02-22T00:04:58;5.45;;;3.90;;
28796;SDS011;24974;54.444;18.560;2023-02-22T00:07:29;6.22;;;3.80;;
28796;SDS011;24974;54.444;18.560;2023-02-22T00:10:00;4.10;;;3.70;;
28796;SDS011;24974;54.444;18.560;2023-02-22T00:12:31;6.63;;;4.32;;
28796;SDS011;24974;54.444;18.560;2023-02-22T06:25:41;13.82;;;9.10;;
28796;SDS011;24974;54.444;18.560;2023-02-22T06:28:12;16.48;;;10.15;;
28796;SDS011;24974;54.444;18.560;2023-02-22T06:30:43;13.52;;;9.73;;
28796;SDS011;24974;54.444;18.560;2023-02-22T06:33:14;14.15;;;10.98;;
28796;SDS011;24974;54.444;18.560;2023-02-22T06:35:45;15.98;;;10.43;;
28796;SDS011;24974;54.444;18.560;2023-02-22T06:38:20;13.63;;;8.98;;
28796;SDS011;24974;54.444;18.560;2023-02-22T06:40:52;23.25;;;16.35;;
28796;SDS011;24974;54.444;18.560;2023-02-22T06:43:24;17.70;;;13.85;;
28796;SDS011;24974;54.444;18.560;2023-02-22T06:45:55;15.38;;;9.30;;
28796;SDS011;24974;54.444;18.560;2023-02-22T06:48:26;14.10;;;8.38;;
28796;SDS011;24974;54.444;18.560;2023-02-22T06:50:57;22.75;;;14.52;;
28796;SDS011;24974;54.444;18.560;2023-02-22T06:53:28;16.50;;;8.95;;
28796;SDS011;24974;54.444;18.560;2023-02-22T06:55:58;16.63;;;8.63;;
28796;SDS011;24974;54.444;18.560;2023-02-22T06:58:30;11.75;;;8.02;;
28796;SDS011;24974;54.444;18.560;2023-02-22T07:01:00;13.05;;;8.80;;
28796;SDS011;24974;54.444;18.560;2023-02-22T07:03:33;16.02;;;8.80;;
28796;SDS011;24974;54.444;18.560;2023-02-22T07:06:06;15.95;;;9.32;;
28796;SDS011;24974;54.444;18.560;2023-02-22T07:08:37;11.80;;;8.43;;
28796;SDS011;24974;54.444;18.560;2023-02-22T07:11:08;14.75;;;8.38;;
28796;SDS011;24974;54.444;18.560;2023-02-22T07:13:39;15.52;;;10.10;;
28796;SDS011;24974;54.444;18.560;2023-02-22T07:16:10;20.13;;;9.80;;
28796;SDS011;24974;54.444;18.560;2023-02-22T07:18:41;15.60;;;9.73;;
28796;SDS011;24974;54.444;18.560;2023-02-22T07:21:11;12.90;;;9.10;;
28796;SDS011;24974;54.444;18.560;2023-02-22T07:23:48;15.45;;;8.65;;
28796;SDS011;24974;54.444;18.560;2023-02-22T07:26:20;20.08;;;9.93;;
28796;SDS011;24974;54.444;18.560;2023-02-22T07:28:52;12.23;;;7.97;;
28796;SDS011;24974;54.444;18.560;2023-02-22T07:31:23;16.23;;;8.40;;
28796;SDS011;24974;54.444;18.560;2023-02-22T07:33:54;16.15;;;7.82;;
28796;SDS011;24974;54.444;18.560;2023-02-22T07:36:25;6.60;;;5.25;;
28796;SDS011;24974;54.444;18.560;2023-02-22T07:38:55;7.18;;;5.10;;
28796;SDS011;24974;54.444;18.560;2023-02-22T07:41:26;9.57;;;6.03;;
28796;SDS011;24974;54.444;18.560;2023-02-22T07:43:57;11.30;;;7.90;;
28796;SDS011;24974;54.444;18.560;2023-02-22T07:46:28;10.43;;;7.20;;
28796;SDS011;24974;54.444;18.560;2023-02-22T07:48:59;12.43;;;7.28;;
28796;SDS011;24974;54.444;18.560;2023-02-22T07:51:29;11.55;;;7.93;;
28796;SDS011;24974;54.444;18.560;2023-02-22T07:54:00;11.05;;;5.22;;
28796;SDS011;24974;54.444;18.560;2023-02-22T07:56:31;5.88;;;4.82;;
28796;SDS011;24974;54.444;18.560;2023-02-22T07:59:02;6.70;;;4.47;;
28796;SDS011;24974;54.444;18.560;2023-02-22T08:01:33;6.95;;;5.07;;
28796;SDS011;24974;54.444;18.560;2023-02-22T08:04:04;11.00;;;4.80;;
28796;SDS011;24974;54.444;18.560;2023-02-22T08:06:35;8.13;;;5.78;;
28796;SDS011;24974;54.444;18.560;2023-02-22T08:09:06;12.25;;;7.30;;
28796;SDS011;24974;54.444;18.560;2023-02-22T08:11:37;12.27;;;7.53;;
28796;SDS011;24974;54.444;18.560;2023-02-22T08:14:07;9.25;;;6.43;;
28796;SDS011;24974;54.444;18.560;2023-02-22T08:16:38;12.75;;;5.70;;
28796;SDS011;24974;54.444;18.560;2023-02-22T08:19:09;14.73;;;5.43;;
28796;SDS011;24974;54.444;18.560;2023-02-22T08:21:40;9.25;;;5.68;;
28796;SDS011;24974;54.444;18.560;2023-02-22T08:24:11;7.90;;;6.15;;
28796;SDS011;24974;54.444;18.560;2023-02-22T08:26:45;11.65;;;6.15;;
28796;SDS011;24974;54.444;18.560;2023-02-22T08:29:16;10.63;;;5.70;;
28796;SDS011;24974;54.444;18.560;2023-02-22T08:31:50;8.98;;;5.47;;
28796;SDS011;24974;54.444;18.560;2023-02-22T08:36:55;9.50;;;6.07;;
28796;SDS011;24974;54.444;18.560;2023-02-22T08:39:26;9.85;;;6.00;;
28796;SDS011;24974;54.444;18.560;2023-02-22T08:41:56;11.32;;;5.60;;
28796;SDS011;24974;54.444;18.560;2023-02-22T08:44:27;7.78;;;4.68;;
28796;SDS011;24974;54.444;18.560;2023-02-22T08:46:58;6.10;;;4.43;;
28796;SDS011;24974;54.444;18.560;2023-02-22T08:49:29;7.75;;;3.83;;
28796;SDS011;24974;54.444;18.560;2023-02-22T08:52:00;9.93;;;4.53;;
28796;SDS011;24974;54.444;18.560;2023-02-22T08:54:30;7.47;;;4.85;;
28796;SDS011;24974;54.444;18.560;2023-02-22T08:57:01;8.13;;;4.57;;
28796;SDS011;24974;54.444;18.560;2023-02-22T08:59:32;5.88;;;4.32;;
28796;SDS011;24974;54.444;18.560;2023-02-22T09:02:03;5.82;;;3.53;;
28796;SDS011;24974;54.444;18.560;2023-02-22T09:04:34;4.80;;;3.40;;
28796;SDS011;24974;54.444;18.560;2023-02-22T09:07:05;5.72;;;4.10;;
28796;SDS011;24974;54.444;18.560;2023-02-22T09:09:36;8.15;;;4.15;;
28796;SDS011;24974;54.444;18.560;2023-02-22T09:12:07;5.95;;;4.32;;
28796;SDS011;24974;54.444;18.560;2023-02-22T09:14:38;7.82;;;4.85;;
28796;SDS011;24974;54.444;18.560;2023-02-22T09:17:09;8.55;;;5.18;;
28796;SDS011;24974;54.444;18.560;2023-02-22T09:19:40;6.85;;;4.25;;
28796;SDS011;24974;54.444;18.560;2023-02-22T09:22:11;6.75;;;4.38;;
28796;SDS011;24974;54.444;18.560;2023-02-22T09:24:42;6.38;;;4.72;;
28796;SDS011;24974;54.444;18.560;2023-02-22T09:27:13;7.15;;;4.15;;
28796;SDS011;24974;54.444;18.560;2023-02-22T09:29:46;7.53;;;4.75;;
28796;SDS011;24974;54.444;18.560;2023-02-22T09:32:18;7.85;;;4.72;;
28796;SDS011;24974;54.444;18.560;2023-02-22T09:34:49;9.32;;;4.13;;
28796;SDS011;24974;54.444;18.560;2023-02-22T09:37:21;8.18;;;4.38;;
28796;SDS011;24974;54.444;18.560;2023-02-22T09:39:52;9.20;;;4.55;;
28796;SDS011;24974;54.444;18.560;2023-02-22T09:42:26;9.05;;;4.25;;
28796;SDS011;24974;54.444;18.560;2023-02-22T09:45:09;5.55;;;4.30;;
28796;SDS011;24974;54.444;18.560;2023-02-22T09:47:52;9.82;;;4.55;;
28796;SDS011;24974;54.444;18.560;2023-02-22T09:50:31;5.93;;;3.53;;
28796;SDS011;24974;54.444;18.560;2023-02-22T09:53:25;5.90;;;4.45;;
28796;SDS011;24974;54.444;18.560;2023-02-22T09:56:05;10.18;;;4.97;;
28796;SDS011;24974;54.444;18.560;2023-02-22T09:58:47;5.80;;;3.70;;
28796;SDS011;24974;54.444;18.560;2023-02-22T10:09:41;5.13;;;4.13;;
28796;SDS011;24974;54.444;18.560;2023-02-22T10:12:22;7.45;;;4.03;;
28796;SDS011;24974;54.444;18.560;2023-02-22T10:21:15;6.75;;;3.90;;
28796;SDS011;24974;54.444;18.560;2023-02-22T10:27:12;5.57;;;3.20;;
28796;SDS011;24974;54.444;18.560;2023-02-22T10:29:52;11.30;;;3.70;;
28796;SDS011;24974;54.444;18.560;2023-02-22T10:32:30;5.03;;;3.90;;
28796;SDS011;24974;54.444;18.560;2023-02-22T10:35:17;5.30;;;4.38;;
28796;SDS011;24974;54.444;18.560;2023-02-22T10:38:01;5.55;;;4.40;;
28796;SDS011;24974;54.444;18.560;2023-02-22T10:40:42;6.00;;;4.53;;
28796;SDS011;24974;54.444;18.560;2023-02-22T10:43:20;4.32;;;3.92;;
28796;SDS011;24974;54.444;18.560;2023-02-22T10:45:54;5.22;;;4.40;;
28796;SDS011;24974;54.444;18.560;2023-02-22T10:51:02;4.85;;;4.18;;
28796;SDS011;24974;54.444;18.560;2023-02-22T10:53:36;8.25;;;5.03;;
28796;SDS011;24974;54.444;18.560;2023-02-22T10:56:12;9.52;;;4.95;;
28796;SDS011;24974;54.444;18.560;2023-02-22T11:01:37;4.47;;;4.07;;
28796;SDS011;24974;54.444;18.560;2023-02-22T11:06:48;5.55;;;4.60;;
28796;SDS011;24974;54.444;18.560;2023-02-22T11:09:28;7.35;;;5.60;;
28796;SDS011;24974;54.444;18.560;2023-02-22T11:12:15;5.82;;;4.50;;
28796;SDS011;24974;54.444;18.560;2023-02-22T11:14:49;5.78;;;5.15;;
28796;SDS011;24974;54.444;18.560;2023-02-22T11:17:38;7.25;;;4.95;;
28796;SDS011;24974;54.444;18.560;2023-02-22T11:20:20;7.32;;;4.65;;
28796;SDS011;24974;54.444;18.560;2023-02-22T11:22:55;11.90;;;5.70;;
28796;SDS011;24974;54.444;18.560;2023-02-22T11:25:37;10.45;;;6.00;;
28796;SDS011;24974;54.444;18.560;2023-02-22T11:28:26;11.60;;;6.15;;
28796;SDS011;24974;54.444;18.560;2023-02-22T11:31:09;12.18;;;5.65;;
28796;SDS011;24974;54.444;18.560;2023-02-22T11:33:52;11.82;;;6.63;;
28796;SDS011;24974;54.444;18.560;2023-02-22T11:36:29;9.57;;;4.85;;
28796;SDS011;24974;54.444;18.560;2023-02-22T11:39:00;7.53;;;4.93;;
28796;SDS011;24974;54.444;18.560;2023-02-22T11:41:35;10.00;;;5.80;;
28796;SDS011;24974;54.444;18.560;2023-02-22T11:44:13;9.80;;;5.55;;
28796;SDS011;24974;54.444;18.560;2023-02-22T11:46:53;10.15;;;6.22;;
28796;SDS011;24974;54.444;18.560;2023-02-22T11:49:33;12.00;;;5.50;;
28796;SDS011;24974;54.444;18.560;2023-02-22T12:09:23;6.35;;;4.45;;
28796;SDS011;24974;54.444;18.560;2023-02-22T12:15:23;12.10;;;7.03;;
28796;SDS011;24974;54.444;18.560;2023-02-22T12:21:19;6.05;;;4.50;;
28796;SDS011;24974;54.444;18.560;2023-02-22T12:23:55;7.60;;;4.15;;
28796;SDS011;24974;54.444;18.560;2023-02-22T12:26:37;8.80;;;5.68;;
28796;SDS011;24974;54.444;18.560;2023-02-22T12:29:24;6.57;;;3.90;;
28796;SDS011;24974;54.444;18.560;2023-02-22T12:32:03;4.57;;;4.18;;
28796;SDS011;24974;54.444;18.560;2023-02-22T12:34:46;8.40;;;5.03;;
28796;SDS011;24974;54.444;18.560;2023-02-22T12:37:32;4.30;;;3.85;;
28796;SDS011;24974;54.444;18.560;2023-02-22T12:43:26;5.55;;;4.35;;
28796;SDS011;24974;54.444;18.560;2023-02-22T13:03:49;8.75;;;6.28;;
28796;SDS011;24974;54.444;18.560;2023-02-22T13:06:27;7.25;;;5.07;;
28796;SDS011;24974;54.444;18.560;2023-02-22T13:15:03;12.60;;;5.88;;
28796;SDS011;24974;54.444;18.560;2023-02-22T13:29:25;9.18;;;5.15;;
28796;SDS011;24974;54.444;18.560;2023-02-22T13:52:31;14.45;;;5.43;;
28796;SDS011;24974;54.444;18.560;2023-02-22T13:55:09;7.38;;;5.70;;
28796;SDS011;24974;54.444;18.560;2023-02-22T13:57:47;8.35;;;5.20;;
28796;SDS011;24974;54.444;18.560;2023-02-22T14:00:22;7.03;;;4.95;;
28796;SDS011;24974;54.444;18.560;2023-02-22T14:02:59;6.55;;;5.32;;
28796;SDS011;24974;54.444;18.560;2023-02-22T14:05:56;6.88;;;5.45;;
28796;SDS011;24974;54.444;18.560;2023-02-22T14:11:04;6.65;;;5.53;;
28796;SDS011;24974;54.444;18.560;2023-02-22T14:16:30;7.90;;;6.25;;
28796;SDS011;24974;54.444;18.560;2023-02-22T14:19:22;9.77;;;5.95;;
28796;SDS011;24974;54.444;18.560;2023-02-22T14:21:58;7.43;;;6.18;;
28796;SDS011;24974;54.444;18.560;2023-02-22T14:24:46;9.88;;;7.45;;
28796;SDS011;24974;54.444;18.560;2023-02-22T14:27:17;16.35;;;7.55;;
28796;SDS011;24974;54.444;18.560;2023-02-22T14:29:53;14.55;;;8.25;;
28796;SDS011;24974;54.444;18.560;2023-02-22T14:32:33;16.15;;;8.70;;
28796;SDS011;24974;54.444;18.560;2023-02-22T14:35:16;9.75;;;7.50;;
28796;SDS011;24974;54.444;18.560;2023-02-22T14:37:51;12.35;;;7.80;;
28796;SDS011;24974;54.444;18.560;2023-02-22T14:40:29;6.95;;;5.60;;
28796;SDS011;24974;54.444;18.560;2023-02-22T14:43:18;11.60;;;6.28;;
28796;SDS011;24974;54.444;18.560;2023-02-22T14:45:52;8.18;;;6.53;;
28796;SDS011;24974;54.444;18.560;2023-02-22T14:48:27;9.30;;;6.57;;
28796;SDS011;24974;54.444;18.560;2023-02-22T14:54:01;9.15;;;5.43;;
28796;SDS011;24974;54.444;18.560;2023-02-22T14:56:39;10.10;;;7.47;;
28796;SDS011;24974;54.444;18.560;2023-02-22T14:59:30;9.48;;;7.53;;
28796;SDS011;24974;54.444;18.560;2023-02-22T15:02:10;17.58;;;11.48;;
28796;SDS011;24974;54.444;18.560;2023-02-22T15:04:49;10.80;;;7.65;;
28796;SDS011;24974;54.444;18.560;2023-02-22T15:07:25;7.70;;;6.22;;
28796;SDS011;24974;54.444;18.560;2023-02-22T15:12:57;7.50;;;6.40;;
28796;SDS011;24974;54.444;18.560;2023-02-22T15:15:41;10.27;;;7.47;;
28796;SDS011;24974;54.444;18.560;2023-02-22T15:18:22;8.48;;;6.30;;
28796;SDS011;24974;54.444;18.560;2023-02-22T15:21:02;9.57;;;6.65;;
28796;SDS011;24974;54.444;18.560;2023-02-22T15:23:46;7.10;;;6.25;;
28796;SDS011;24974;54.444;18.560;2023-02-22T15:26:27;9.90;;;7.18;;
28796;SDS011;24974;54.444;18.560;2023-02-22T15:29:15;9.52;;;7.30;;
28796;SDS011;24974;54.444;18.560;2023-02-22T15:31:49;9.88;;;6.47;;
28796;SDS011;24974;54.444;18.560;2023-02-22T15:34:23;7.32;;;6.18;;
28796;SDS011;24974;54.444;18.560;2023-02-22T15:37:01;10.85;;;7.40;;
28796;SDS011;24974;54.444;18.560;2023-02-22T15:40:04;12.57;;;7.38;;
28796;SDS011;24974;54.444;18.560;2023-02-22T15:42:41;12.25;;;8.40;;
28796;SDS011;24974;54.444;18.560;2023-02-22T15:45:23;8.95;;;7.55;;
28796;SDS011;24974;54.444;18.560;2023-02-22T15:47:55;10.02;;;8.02;;
28796;SDS011;24974;54.444;18.560;2023-02-22T15:50:29;10.32;;;7.35;;
28796;SDS011;24974;54.444;18.560;2023-02-22T15:55:57;11.15;;;9.23;;
28796;SDS011;24974;54.444;18.560;2023-02-22T15:58:30;11.65;;;8.57;;
28796;SDS011;24974;54.444;18.560;2023-02-22T16:03:55;10.43;;;8.48;;
28796;SDS011;24974;54.444;18.560;2023-02-22T16:06:33;11.57;;;8.95;;
28796;SDS011;24974;54.444;18.560;2023-02-22T16:11:44;11.93;;;8.45;;
28796;SDS011;24974;54.444;18.560;2023-02-22T16:22:42;17.23;;;11.57;;
28796;SDS011;24974;54.444;18.560;2023-02-22T16:27:52;13.68;;;10.30;;
28796;SDS011;24974;54.444;18.560;2023-02-22T16:30:28;11.80;;;9.77;;
28796;SDS011;24974;54.444;18.560;2023-02-22T16:35:39;28.58;;;15.50;;
28796;SDS011;24974;54.444;18.560;2023-02-22T16:38:10;19.83;;;13.73;;
28796;SDS011;24974;54.444;18.560;2023-02-22T16:40:46;37.13;;;22.30;;
28796;SDS011;24974;54.444;18.560;2023-02-22T16:43:25;26.52;;;18.02;;
28796;SDS011;24974;54.444;18.560;2023-02-22T16:45:59;77.00;;;35.00;;
28796;SDS011;24974;54.444;18.560;2023-02-22T16:48:31;71.28;;;32.67;;
28796;SDS011;24974;54.444;18.560;2023-02-22T16:51:09;49.08;;;25.80;;
28796;SDS011;24974;54.444;18.560;2023-02-22T16:53:48;15.65;;;11.15;;
28796;SDS011;24974;54.444;18.560;2023-02-22T16:56:20;17.08;;;11.02;;
28796;SDS011;24974;54.444;18.560;2023-02-22T17:01:30;20.10;;;15.05;;
28796;SDS011;24974;54.444;18.560;2023-02-22T17:04:08;22.77;;;15.88;;
28796;SDS011;24974;54.444;18.560;2023-02-22T17:06:43;18.73;;;13.45;;
28796;SDS011;24974;54.444;18.560;2023-02-22T17:09:14;20.83;;;14.38;;
28796;SDS011;24974;54.444;18.560;2023-02-22T17:11:46;18.88;;;13.52;;
28796;SDS011;24974;54.444;18.560;2023-02-22T17:14:20;20.33;;;13.48;;
28796;SDS011;24974;54.444;18.560;2023-02-22T17:16:53;14.98;;;12.07;;
28796;SDS011;24974;54.444;18.560;2023-02-22T17:19:24;16.90;;;11.05;;
28796;SDS011;24974;54.444;18.560;2023-02-22T17:21:55;16.70;;;11.10;;
28796;SDS011;24974;54.444;18.560;2023-02-22T17:24:26;18.52;;;11.55;;
28796;SDS011;24974;54.444;18.560;2023-02-22T17:26:58;18.35;;;10.88;;
28796;SDS011;24974;54.444;18.560;2023-02-22T17:29:30;21.48;;;12.52;;
28796;SDS011;24974;54.444;18.560;2023-02-22T17:32:01;19.65;;;11.88;;
28796;SDS011;24974;54.444;18.560;2023-02-22T17:34:32;14.52;;;10.82;;
28796;SDS011;24974;54.444;18.560;2023-02-22T17:37:03;13.68;;;10.70;;
28796;SDS011;24974;54.444;18.560;2023-02-22T17:39:34;13.98;;;11.00;;
28796;SDS011;24974;54.444;18.560;2023-02-22T17:42:05;15.27;;;11.75;;
28796;SDS011;24974;54.444;18.560;2023-02-22T17:44:35;15.98;;;11.55;;
28796;SDS011;24974;54.444;18.560;2023-02-22T17:47:06;16.40;;;11.02;;
28796;SDS011;24974;54.444;18.560;2023-02-22T17:49:37;16.40;;;11.43;;
28796;SDS011;24974;54.444;18.560;2023-02-22T17:52:08;15.43;;;11.02;;
28796;SDS011;24974;54.444;18.560;2023-02-22T17:54:39;23.13;;;15.00;;
28796;SDS011;24974;54.444;18.560;2023-02-22T17:57:10;21.23;;;13.35;;
28796;SDS011;24974;54.444;18.560;2023-02-22T17:59:41;20.48;;;13.98;;
28796;SDS011;24974;54.444;18.560;2023-02-22T18:02:11;18.00;;;11.77;;
28796;SDS011;24974;54.444;18.560;2023-02-22T18:04:42;12.27;;;8.57;;
28796;SDS011;24974;54.444;18.560;2023-02-22T18:07:13;15.43;;;8.18;;
28796;SDS011;24974;54.444;18.560;2023-02-22T18:09:48;13.63;;;8.77;;
28796;SDS011;24974;54.444;18.560;2023-02-22T18:12:19;13.30;;;9.05;;
28796;SDS011;24974;54.444;18.560;2023-02-22T18:14:50;11.90;;;8.95;;
28796;SDS011;24974;54.444;18.560;2023-02-22T18:17:22;17.27;;;9.98;;
28796;SDS011;24974;54.444;18.560;2023-02-22T18:19:53;17.02;;;10.00;;
28796;SDS011;24974;54.444;18.560;2023-02-22T18:22:24;18.13;;;10.80;;
28796;SDS011;24974;54.444;18.560;2023-02-22T18:24:54;18.67;;;10.23;;
28796;SDS011;24974;54.444;18.560;2023-02-22T18:27:25;15.07;;;9.23;;
28796;SDS011;24974;54.444;18.560;2023-02-22T18:29:59;14.95;;;10.15;;
28796;SDS011;24974;54.444;18.560;2023-02-22T18:32:30;15.30;;;10.23;;
28796;SDS011;24974;54.444;18.560;2023-02-22T18:35:01;17.38;;;9.85;;
28796;SDS011;24974;54.444;18.560;2023-02-22T18:37:32;13.20;;;8.77;;
28796;SDS011;24974;54.444;18.560;2023-02-22T18:40:03;15.18;;;10.30;;
28796;SDS011;24974;54.444;18.560;2023-02-22T18:42:39;21.60;;;11.52;;
28796;SDS011;24974;54.444;18.560;2023-02-22T18:45:10;13.57;;;9.32;;
28796;SDS011;24974;54.444;18.560;2023-02-22T18:47:41;14.70;;;10.93;;
28796;SDS011;24974;54.444;18.560;2023-02-22T18:50:13;20.85;;;11.55;;
28796;SDS011;24974;54.444;18.560;2023-02-22T18:52:46;22.17;;;11.82;;
28796;SDS011;24974;54.444;18.560;2023-02-22T18:55:17;17.25;;;11.77;;
28796;SDS011;24974;54.444;18.560;2023-02-22T18:57:50;19.35;;;11.75;;
28796;SDS011;24974;54.444;18.560;2023-02-22T19:00:21;20.15;;;12.95;;
28796;SDS011;24974;54.444;18.560;2023-02-22T19:02:57;24.83;;;15.23;;
28796;SDS011;24974;54.444;18.560;2023-02-22T19:05:28;35.90;;;18.67;;
28796;SDS011;24974;54.444;18.560;2023-02-22T19:08:01;30.58;;;18.58;;
28796;SDS011;24974;54.444;18.560;2023-02-22T19:10:33;28.27;;;18.25;;
28796;SDS011;24974;54.444;18.560;2023-02-22T19:13:04;22.67;;;14.55;;
28796;SDS011;24974;54.444;18.560;2023-02-22T19:15:39;22.38;;;13.32;;
28796;SDS011;24974;54.444;18.560;2023-02-22T19:18:10;22.88;;;13.90;;
28796;SDS011;24974;54.444;18.560;2023-02-22T19:20:42;19.45;;;13.65;;
28796;SDS011;24974;54.444;18.560;2023-02-22T19:23:13;21.17;;;14.02;;
28796;SDS011;24974;54.444;18.560;2023-02-22T19:25:44;20.13;;;13.65;;
28796;SDS011;24974;54.444;18.560;2023-02-22T19:28:16;24.58;;;15.52;;
28796;SDS011;24974;54.444;18.560;2023-02-22T19:30:47;19.83;;;14.48;;
28796;SDS011;24974;54.444;18.560;2023-02-22T19:33:18;24.45;;;14.75;;
28796;SDS011;24974;54.444;18.560;2023-02-22T19:35:49;20.92;;;14.20;;
28796;SDS011;24974;54.444;18.560;2023-02-22T19:38:19;19.98;;;13.15;;
28796;SDS011;24974;54.444;18.560;2023-02-22T19:40:50;18.67;;;13.10;;
28796;SDS011;24974;54.444;18.560;2023-02-22T19:43:21;23.40;;;12.65;;
28796;SDS011;24974;54.444;18.560;2023-02-22T19:45:52;28.20;;;14.55;;
28796;SDS011;24974;54.444;18.560;2023-02-22T19:48:23;22.48;;;14.48;;
28796;SDS011;24974;54.444;18.560;2023-02-22T19:50:54;22.50;;;14.20;;
28796;SDS011;24974;54.444;18.560;2023-02-22T19:53:27;23.27;;;13.55;;
28796;SDS011;24974;54.444;18.560;2023-02-22T19:55:57;25.15;;;13.70;;
28796;SDS011;24974;54.444;18.560;2023-02-22T19:58:29;21.30;;;14.02;;
28796;SDS011;24974;54.444;18.560;2023-02-22T20:01:02;19.65;;;12.27;;
28796;SDS011;24974;54.444;18.560;2023-02-22T20:03:43;16.67;;;10.90;;
28796;SDS011;24974;54.444;18.560;2023-02-22T20:06:14;20.58;;;11.48;;
28796;SDS011;24974;54.444;18.560;2023-02-22T20:08:45;17.17;;;9.70;;
28796;SDS011;24974;54.444;18.560;2023-02-22T20:11:16;14.93;;;8.90;;
28796;SDS011;24974;54.444;18.560;2023-02-22T20:13:49;16.70;;;8.82;;
28796;SDS011;24974;54.444;18.560;2023-02-22T20:16:20;18.95;;;9.88;;
28796;SDS011;24974;54.444;18.560;2023-02-22T20:18:52;21.83;;;10.50;;
28796;SDS011;24974;54.444;18.560;2023-02-22T20:21:31;14.95;;;9.15;;
28796;SDS011;24974;54.444;18.560;2023-02-22T20:24:04;20.08;;;9.02;;
28796;SDS011;24974;54.444;18.560;2023-02-22T20:26:37;15.70;;;8.75;;
28796;SDS011;24974;54.444;18.560;2023-02-22T20:29:09;23.42;;;10.50;;
28796;SDS011;24974;54.444;18.560;2023-02-22T20:31:41;24.20;;;12.20;;
28796;SDS011;24974;54.444;18.560;2023-02-22T20:34:13;26.05;;;12.77;;
28796;SDS011;24974;54.444;18.560;2023-02-22T20:36:44;25.55;;;12.32;;
28796;SDS011;24974;54.444;18.560;2023-02-22T20:39:15;21.70;;;10.85;;
28796;SDS011;24974;54.444;18.560;2023-02-22T20:41:46;35.33;;;12.02;;
28796;SDS011;24974;54.444;18.560;2023-02-22T20:44:17;24.95;;;11.52;;
28796;SDS011;24974;54.444;18.560;2023-02-22T20:46:48;23.60;;;10.65;;
28796;SDS011;24974;54.444;18.560;2023-02-22T20:49:19;16.88;;;10.02;;
28796;SDS011;24974;54.444;18.560;2023-02-22T20:51:50;17.73;;;8.95;;
28796;SDS011;24974;54.444;18.560;2023-02-22T20:54:21;14.95;;;8.85;;
28796;SDS011;24974;54.444;18.560;2023-02-22T20:56:52;18.05;;;8.63;;
28796;SDS011;24974;54.444;18.560;2023-02-22T20:59:22;18.13;;;7.70;;
28796;SDS011;24974;54.444;18.560;2023-02-22T21:01:53;19.23;;;10.15;;
28796;SDS011;24974;54.444;18.560;2023-02-22T21:04:24;17.02;;;9.18;;
28796;SDS011;24974;54.444;18.560;2023-02-22T21:06:58;14.18;;;7.90;;
28796;SDS011;24974;54.444;18.560;2023-02-22T21:09:32;17.17;;;8.23;;
28796;SDS011;24974;54.444;18.560;2023-02-22T21:12:04;15.65;;;8.85;;
28796;SDS011;24974;54.444;18.560;2023-02-22T21:14:42;13.23;;;8.05;;
28796;SDS011;24974;54.444;18.560;2023-02-22T21:17:13;13.35;;;7.32;;
28796;SDS011;24974;54.444;18.560;2023-02-22T21:19:47;9.20;;;7.05;;
28796;SDS011;24974;54.444;18.560;2023-02-22T21:22:18;14.68;;;8.20;;
28796;SDS011;24974;54.444;18.560;2023-02-22T21:24:48;11.70;;;7.30;;
28796;SDS011;24974;54.444;18.560;2023-02-22T21:27:19;12.63;;;7.95;;
28796;SDS011;24974;54.444;18.560;2023-02-22T21:29:50;12.32;;;8.30;;
28796;SDS011;24974;54.444;18.560;2023-02-22T21:32:21;15.32;;;8.32;;
28796;SDS011;24974;54.444;18.560;2023-02-22T21:34:52;12.68;;;7.95;;
28796;SDS011;24974;54.444;18.560;2023-02-22T21:37:23;13.02;;;8.15;;
28796;SDS011;24974;54.444;18.560;2023-02-22T21:39:54;14.75;;;9.90;;
28796;SDS011;24974;54.444;18.560;2023-02-22T21:42:25;18.02;;;11.07;;
28796;SDS011;24974;54.444;18.560;2023-02-22T21:44:56;14.27;;;8.70;;
28796;SDS011;24974;54.444;18.560;2023-02-22T21:47:26;21.10;;;10.52;;
28796;SDS011;24974;54.444;18.560;2023-02-22T21:50:00;19.40;;;10.00;;
28796;SDS011;24974;54.444;18.560;2023-02-22T21:52:31;16.58;;;10.23;;
28796;SDS011;24974;54.444;18.560;2023-02-22T21:55:02;23.20;;;11.15;;
28796;SDS011;24974;54.444;18.560;2023-02-22T21:57:33;19.38;;;11.43;;
28796;SDS011;24974;54.444;18.560;2023-02-22T22:00:04;22.73;;;12.10;;
28796;SDS011;24974;54.444;18.560;2023-02-22T22:02:47;19.05;;;12.30;;
28796;SDS011;24974;54.444;18.560;2023-02-22T22:05:17;18.85;;;12.52;;
28796;SDS011;24974;54.444;18.560;2023-02-22T22:08:01;22.25;;;12.48;;
28796;SDS011;24974;54.444;18.560;2023-02-22T22:10:35;21.75;;;12.75;;
28796;SDS011;24974;54.444;18.560;2023-02-22T22:13:06;25.23;;;13.52;;
28796;SDS011;24974;54.444;18.560;2023-02-22T22:15:38;24.45;;;13.85;;
28796;SDS011;24974;54.444;18.560;2023-02-22T22:18:09;21.70;;;13.98;;
28796;SDS011;24974;54.444;18.560;2023-02-22T22:20:40;28.20;;;16.60;;
28796;SDS011;24974;54.444;18.560;2023-02-22T22:23:14;29.55;;;15.82;;
28796;SDS011;24974;54.444;18.560;2023-02-22T22:25:44;28.95;;;16.60;;
28796;SDS011;24974;54.444;18.560;2023-02-22T22:28:15;30.67;;;17.60;;
28796;SDS011;24974;54.444;18.560;2023-02-22T22:30:46;30.33;;;17.52;;
28796;SDS011;24974;54.444;18.560;2023-02-22T22:33:17;26.63;;;16.25;;
28796;SDS011;24974;54.444;18.560;2023-02-22T22:35:48;28.88;;;16.95;;
28796;SDS011;24974;54.444;18.560;2023-02-22T22:38:19;26.88;;;17.10;;
28796;SDS011;24974;54.444;18.560;2023-02-22T22:40:50;26.50;;;16.45;;
28796;SDS011;24974;54.444;18.560;2023-02-22T22:43:22;26.88;;;17.33;;
28796;SDS011;24974;54.444;18.560;2023-02-22T22:45:53;32.10;;;17.70;;
28796;SDS011;24974;54.444;18.560;2023-02-22T22:48:25;29.35;;;16.50;;
28796;SDS011;24974;54.444;18.560;2023-02-22T22:53:32;26.50;;;17.52;;
28796;SDS011;24974;54.444;18.560;2023-02-22T22:56:07;26.17;;;16.90;;
28796;SDS011;24974;54.444;18.560;2023-02-22T22:58:47;25.88;;;16.52;;
28796;SDS011;24974;54.444;18.560;2023-02-22T23:01:22;26.15;;;16.42;;
28796;SDS011;24974;54.444;18.560;2023-02-22T23:03:57;25.77;;;16.65;;
28796;SDS011;24974;54.444;18.560;2023-02-22T23:06:31;29.10;;;17.20;;
28796;SDS011;24974;54.444;18.560;2023-02-22T23:09:10;25.95;;;16.42;;
28796;SDS011;24974;54.444;18.560;2023-02-22T23:11:48;26.92;;;16.35;;
28796;SDS011;24974;54.444;18.560;2023-02-22T23:14:27;28.00;;;17.02;;
28796;SDS011;24974;54.444;18.560;2023-02-22T23:17:00;24.42;;;16.50;;
28796;SDS011;24974;54.444;18.560;2023-02-22T23:19:34;27.10;;;17.17;;
28796;SDS011;24974;54.444;18.560;2023-02-22T23:22:06;24.55;;;15.45;;
28796;SDS011;24974;54.444;18.560;2023-02-22T23:24:37;24.67;;;16.55;;
28796;SDS011;24974;54.444;18.560;2023-02-22T23:27:08;24.73;;;14.98;;
28796;SDS011;24974;54.444;18.560;2023-02-22T23:29:40;24.98;;;16.13;;
28796;SDS011;24974;54.444;18.560;2023-02-22T23:32:12;24.50;;;16.25;;
28796;SDS011;24974;54.444;18.560;2023-02-22T23:34:43;25.90;;;16.83;;
28796;SDS011;24974;54.444;18.560;2023-02-22T23:37:14;25.50;;;17.58;;
28796;SDS011;24974;54.444;18.560;2023-02-22T23:39:48;24.08;;;16.60;;
28796;SDS011;24974;54.444;18.560;2023-02-22T23:42:20;24.70;;;15.75;;